Time;durP1;ratioP1;P1;durP2;ratioP2;P2;SDS_P1;SDS_P2;PMS_P1;PMS_P2;Temp;Humidity;BMP_temperature;BMP_pressure;BME280_temperature;BME280_humidity;BME280_pressure;Samples;Min_cycle;Max_cycle;Signal;HPM_P1;HPM_P2
2022/05/22 00:01:41;;;;;;;22.08;7.05;;;9.50;99.90;;;;;;4953638;29;20047;-78
2022/05/22 00:04:10;;;;;;;22.67;8.13;;;9.50;99.90;;;;;;4953203;28;20462;-77
2022/05/22 00:06:36;;;;;;;18.88;7.47;;;9.40;99.90;;;;;;4936890;29;20051;-78
2022/05/22 00:09:02;;;;;;;18.30;6.75;;;9.40;99.90;;;;;;4952693;29;20059;-77
2022/05/22 00:11:28;;;;;;;17.48;7.32;;;9.40;99.90;;;;;;4952228;29;20050;-78
2022/05/22 00:13:53;;;;;;;16.02;6.97;;;9.30;99.90;;;;;;4951900;29;20051;-77
2022/05/22 00:16:38;;;;;;;19.50;6.85;;;9.30;99.90;;;;;;4953088;29;20468;-77
2022/05/22 00:19:15;;;;;;;19.65;5.97;;;9.30;99.90;;;;;;4952473;29;20091;-76
2022/05/22 00:21:42;;;;;;;13.85;7.10;;;9.20;99.90;;;;;;4953987;28;20130;-77
2022/05/22 00:24:09;;;;;;;17.73;6.10;;;9.20;99.90;;;;;;4953779;28;20040;-76
2022/05/22 00:26:35;;;;;;;15.70;6.30;;;9.20;99.90;;;;;;4955641;29;20402;-76
2022/05/22 00:29:01;;;;;;;14.20;6.40;;;9.20;99.90;;;;;;4956649;28;20059;-76
2022/05/22 00:31:27;;;;;;;16.65;6.82;;;9.10;99.90;;;;;;4956741;29;20051;-76
2022/05/22 00:33:53;;;;;;;19.65;7.07;;;9.10;99.90;;;;;;4955319;29;20074;-76
2022/05/22 00:36:19;;;;;;;14.70;6.37;;;9.10;99.90;;;;;;4956956;29;20043;-77
2022/05/22 00:38:45;;;;;;;22.80;7.78;;;9.10;99.90;;;;;;4956547;28;20078;-77
2022/05/22 00:41:12;;;;;;;17.98;6.90;;;9.10;99.90;;;;;;4955400;29;20055;-76
2022/05/22 00:43:42;;;;;;;;;;;9.10;99.90;;;;;;4956940;29;20066;-77
2022/05/22 00:46:11;;;;;;;21.13;6.47;;;9.20;99.90;;;;;;4955243;29;19930;-76
2022/05/22 00:48:39;;;;;;;17.75;6.38;;;9.20;99.90;;;;;;4955194;29;20047;-76
2022/05/22 00:51:13;;;;;;;17.48;6.53;;;9.20;99.90;;;;;;4956130;29;20063;-81
2022/05/22 00:53:45;;;;;;;15.60;6.53;;;9.10;99.90;;;;;;4956001;28;20043;-77
2022/05/22 00:56:17;;;;;;;17.15;6.40;;;9.20;99.90;;;;;;4954942;29;20047;-78
2022/05/22 00:58:42;;;;;;;13.65;6.05;;;9.10;99.90;;;;;;4956317;29;20118;-79
2022/05/22 01:01:08;;;;;;;17.70;6.95;;;9.10;99.90;;;;;;4956618;28;20127;-78
2022/05/22 01:03:36;;;;;;;17.48;7.03;;;9.10;99.90;;;;;;4956529;28;20054;-77
2022/05/22 01:06:08;;;;;;;14.07;6.40;;;9.10;99.90;;;;;;4955090;29;20113;-79
2022/05/22 01:08:37;;;;;;;17.58;7.50;;;9.10;99.90;;;;;;4955907;29;20154;-78
2022/05/22 01:11:23;;;;;;;16.45;7.18;;;9.00;99.90;;;;;;4956079;29;20130;-78
2022/05/22 01:13:56;;;;;;;19.67;7.05;;;9.00;99.90;;;;;;4954698;29;20059;-78
2022/05/22 01:16:22;;;;;;;16.38;6.80;;;9.00;99.90;;;;;;4954756;29;20055;-78
2022/05/22 01:18:51;;;;;;;22.27;8.23;;;9.00;99.90;;;;;;4955331;29;20051;-79
2022/05/22 01:21:20;;;;;;;22.10;7.20;;;8.90;99.90;;;;;;4955935;28;20055;-78
2022/05/22 01:23:46;;;;;;;17.00;7.10;;;8.90;99.90;;;;;;4956058;28;20047;-77
2022/05/22 01:26:13;;;;;;;16.58;7.28;;;8.90;99.90;;;;;;4954900;29;20121;-78
2022/05/22 01:28:38;;;;;;;17.02;6.88;;;9.00;99.90;;;;;;4955521;29;20050;-81
2022/05/22 01:31:05;;;;;;;16.88;6.93;;;8.90;99.90;;;;;;4954602;29;20051;-78
2022/05/22 01:33:36;;;;;;;14.30;6.65;;;8.90;99.90;;;;;;4954563;29;20047;-78
2022/05/22 01:36:02;;;;;;;13.88;6.47;;;8.90;99.90;;;;;;4954160;28;20109;-78
2022/05/22 01:38:28;;;;;;;18.30;6.90;;;8.90;99.90;;;;;;4954508;29;20055;-78
2022/05/22 01:40:54;;;;;;;18.08;7.05;;;8.80;99.90;;;;;;4954129;29;20074;-78
2022/05/22 01:43:20;;;;;;;16.20;6.28;;;8.80;99.90;;;;;;4954065;28;20055;-79
2022/05/22 01:45:46;;;;;;;13.00;5.78;;;8.80;99.90;;;;;;4954172;29;20058;-79
2022/05/22 01:48:12;;;;;;;18.27;7.78;;;8.80;99.90;;;;;;4955317;29;20066;-78
2022/05/22 01:50:39;;;;;;;24.38;7.63;;;8.80;99.90;;;;;;4954159;29;20047;-78
2022/05/22 01:53:06;;;;;;;19.90;7.50;;;8.80;99.90;;;;;;4937891;29;20054;-79
2022/05/22 01:55:32;;;;;;;23.77;7.20;;;8.80;99.90;;;;;;4953787;29;20541;-80
2022/05/22 01:57:58;;;;;;;20.07;7.47;;;8.80;99.90;;;;;;4954126;29;20047;-78
2022/05/22 02:00:26;;;;;;;16.67;7.72;;;8.80;99.90;;;;;;4970853;28;20054;-79
2022/05/22 02:02:56;;;;;;;16.88;7.43;;;8.70;99.90;;;;;;4955655;29;20138;-81
2022/05/22 02:05:22;;;;;;;21.42;8.05;;;8.80;99.90;;;;;;4956732;28;20059;-78
2022/05/22 02:10:33;;;;;;;20.50;8.45;;;8.70;99.90;;;;;;4957207;29;20047;-80
2022/05/22 02:13:00;;;;;;;19.33;6.72;;;8.70;99.90;;;;;;4957408;29;20059;-80
2022/05/22 02:15:26;;;;;;;14.47;6.10;;;8.70;99.90;;;;;;4956147;29;20101;-81
2022/05/22 02:17:52;;;;;;;17.10;6.83;;;8.60;99.90;;;;;;4955485;29;20491;-82
2022/05/22 02:20:18;;;;;;;14.90;6.10;;;8.60;99.90;;;;;;4956149;29;20047;-82
2022/05/22 02:22:53;;;;;;;14.83;6.20;;;8.60;99.90;;;;;;4939032;29;20039;-80
2022/05/22 02:25:30;;;;;;;17.35;7.13;;;8.60;99.90;;;;;;4956493;28;20046;-80
2022/05/22 02:27:56;;;;;;;19.13;6.50;;;8.60;99.90;;;;;;4939745;29;20057;-81
2022/05/22 02:30:27;;;;;;;18.53;6.20;;;8.60;99.90;;;;;;4956571;28;20043;-81
2022/05/22 02:32:52;;;;;;;13.82;6.28;;;8.60;99.90;;;;;;4954752;29;20053;-80
2022/05/22 02:35:19;;;;;;;9.55;5.22;;;8.50;99.90;;;;;;4956674;28;20134;-81
2022/05/22 02:37:54;;;;;;;13.93;5.90;;;8.60;99.90;;;;;;4940153;29;20467;-81
2022/05/22 02:40:23;;;;;;;13.85;5.35;;;8.50;99.90;;;;;;4956230;29;20055;-82
2022/05/22 02:42:50;;;;;;;11.48;6.00;;;8.40;99.90;;;;;;4955166;28;20055;-80
2022/05/22 02:45:19;;;;;;;13.75;6.10;;;8.40;99.90;;;;;;4956286;29;20114;-79
2022/05/22 02:47:46;;;;;;;14.05;6.35;;;8.30;99.90;;;;;;4955886;28;20054;-76
2022/05/22 02:50:13;;;;;;;12.13;6.17;;;8.30;99.90;;;;;;4938870;29;20047;-78
2022/05/22 02:52:40;;;;;;;17.02;6.47;;;8.30;99.90;;;;;;4954549;29;20310;-79
2022/05/22 02:55:07;;;;;;;11.40;6.53;;;8.20;99.90;;;;;;4956626;28;20125;-80
2022/05/22 02:57:34;;;;;;;12.25;6.63;;;8.20;99.90;;;;;;4922789;29;20155;-80
2022/05/22 02:59:59;;;;;;;;;;;8.10;99.90;;;;;;4954714;28;20047;-80
2022/05/22 03:02:25;;;;;;;15.38;6.65;;;8.10;99.90;;;;;;4938048;29;19929;-80
2022/05/22 03:04:51;;;;;;;16.85;6.78;;;8.00;99.90;;;;;;4953813;29;20043;-81
2022/05/22 03:07:19;;;;;;;15.32;6.53;;;8.00;99.90;;;;;;4954630;29;20133;-80
2022/05/22 03:09:46;;;;;;;13.63;6.75;;;8.00;99.90;;;;;;4938546;29;20460;-80
2022/05/22 03:12:15;;;;;;;17.80;7.45;;;8.00;99.90;;;;;;4953942;29;20053;-81
2022/05/22 03:14:46;;;;;;;18.25;6.97;;;8.00;99.90;;;;;;4954483;28;20102;-79
2022/05/22 03:17:12;;;;;;;16.30;7.07;;;8.00;99.90;;;;;;4953976;29;20075;-79
2022/05/22 03:19:38;;;;;;;17.55;7.22;;;8.00;99.90;;;;;;4938378;29;20051;-80
2022/05/22 03:22:05;;;;;;;17.77;8.00;;;8.00;99.90;;;;;;4938701;29;20384;-80
2022/05/22 03:24:31;;;;;;;22.70;8.55;;;8.00;99.90;;;;;;4938950;29;20091;-80
2022/05/22 03:26:57;;;;;;;19.15;7.70;;;8.10;99.90;;;;;;4939493;29;20047;-80
2022/05/22 03:29:22;;;;;;;19.65;7.75;;;8.00;99.90;;;;;;4954571;29;20058;-81
2022/05/22 03:31:48;;;;;;;13.93;7.22;;;8.00;99.90;;;;;;4938158;29;20051;-77
2022/05/22 03:34:14;;;;;;;16.27;7.60;;;8.00;99.90;;;;;;4955189;29;20051;-80
2022/05/22 03:36:40;;;;;;;18.67;7.80;;;8.00;99.90;;;;;;4971141;28;20043;-79
2022/05/22 03:39:06;;;;;;;14.52;6.45;;;8.00;99.90;;;;;;4956482;28;20062;-80
2022/05/22 03:41:37;;;;;;;18.60;8.25;;;8.10;99.90;;;;;;4939043;29;20053;-78
2022/05/22 03:44:03;;;;;;;15.57;7.22;;;8.10;99.90;;;;;;4954319;28;20055;-79
2022/05/22 03:46:29;;;;;;;15.70;7.40;;;8.10;99.90;;;;;;4954457;29;20082;-80
2022/05/22 03:48:55;;;;;;;22.08;7.28;;;8.10;99.90;;;;;;4955630;28;20047;-81
2022/05/22 03:51:20;;;;;;;16.10;6.93;;;8.10;99.90;;;;;;4954463;29;20047;-80
2022/05/22 03:53:46;;;;;;;14.93;6.97;;;8.10;99.90;;;;;;4955043;29;20055;-79
2022/05/22 03:56:14;;;;;;;13.65;7.10;;;8.10;99.90;;;;;;4938011;29;20130;-81
2022/05/22 03:58:41;;;;;;;16.52;7.07;;;8.10;99.90;;;;;;4955016;28;20040;-80
2022/05/22 04:01:07;;;;;;;18.80;6.80;;;8.20;99.90;;;;;;4960063;29;20086;-80
2022/05/22 04:03:34;;;;;;;13.23;6.70;;;8.20;99.90;;;;;;4958109;29;20058;-78
2022/05/22 04:06:05;;;;;;;17.75;6.88;;;8.20;99.90;;;;;;4958319;29;20050;-79
2022/05/22 04:08:32;;;;;;;14.95;6.85;;;8.20;99.90;;;;;;4959681;29;20070;-80
2022/05/22 04:11:08;;;;;;;16.05;7.10;;;8.30;99.90;;;;;;4960028;28;20051;-80
2022/05/22 04:13:34;;;;;;;14.95;6.30;;;8.30;99.90;;;;;;4945372;29;20054;-80
2022/05/22 04:16:00;;;;;;;13.23;6.47;;;8.40;99.90;;;;;;4943635;29;20059;-80
2022/05/22 04:18:26;;;;;;;15.60;6.78;;;8.40;99.90;;;;;;4959641;28;20066;-80
2022/05/22 04:20:52;;;;;;;14.30;6.85;;;8.50;99.90;;;;;;4958631;29;20234;-80
2022/05/22 04:26:05;;;;;;;15.30;6.80;;;8.60;99.90;;;;;;4962609;28;20158;-79
2022/05/22 04:28:32;;;;;;;19.73;7.70;;;8.70;99.90;;;;;;4960212;29;20094;-78
2022/05/22 04:30:58;;;;;;;15.73;7.20;;;8.70;99.90;;;;;;4962442;29;20055;-80
2022/05/22 04:33:26;;;;;;;13.95;7.38;;;8.80;99.90;;;;;;4960848;29;20039;-81
2022/05/22 04:35:53;;;;;;;17.95;7.22;;;8.90;99.90;;;;;;4975772;28;20051;-79
2022/05/22 04:38:19;;;;;;;14.65;6.97;;;8.90;99.90;;;;;;4961248;29;20101;-79
2022/05/22 04:40:54;;;;;;;19.25;7.82;;;8.90;99.90;;;;;;4960698;28;20098;-80
2022/05/22 04:43:19;;;;;;;13.77;7.00;;;9.00;99.90;;;;;;4960417;29;20380;-81
2022/05/22 04:45:45;;;;;;;14.85;7.20;;;9.00;99.90;;;;;;4959600;28;20054;-81
2022/05/22 04:48:11;;;;;;;17.00;7.57;;;9.10;99.90;;;;;;4959685;28;20047;-79
2022/05/22 04:50:36;;;;;;;16.63;7.47;;;9.10;99.90;;;;;;4942729;29;20075;-79
2022/05/22 04:53:02;;;;;;;18.83;7.50;;;9.20;99.90;;;;;;4959981;29;20435;-80
2022/05/22 04:55:28;;;;;;;22.98;8.55;;;9.30;99.90;;;;;;4958828;28;20058;-79
2022/05/22 04:57:54;;;;;;;19.10;7.15;;;9.40;99.90;;;;;;4957141;29;20053;-79
2022/05/22 05:00:20;;;;;;;20.85;8.38;;;9.40;99.90;;;;;;4957834;29;20055;-80
2022/05/22 05:02:47;;;;;;;19.52;7.65;;;9.40;99.90;;;;;;4941932;29;20043;-80
2022/05/22 05:05:12;;;;;;;25.00;8.43;;;9.50;99.90;;;;;;4958613;29;20399;-80
2022/05/22 05:07:42;;;;;;;23.70;7.82;;;9.60;99.90;;;;;;4941346;29;20051;-78
2022/05/22 05:10:10;;;;;;;21.15;9.25;;;9.70;99.90;;;;;;4956650;28;20121;-79
2022/05/22 05:12:38;;;;;;;24.17;8.07;;;9.70;99.90;;;;;;4972400;28;20352;-78
2022/05/22 05:15:06;;;;;;;17.98;7.18;;;9.80;99.90;;;;;;4956581;29;20102;-78
2022/05/22 05:17:32;;;;;;;15.60;7.75;;;9.90;99.90;;;;;;4972266;28;20124;-78
2022/05/22 05:19:58;;;;;;;19.92;7.60;;;10.00;99.90;;;;;;4971890;28;20055;-79
2022/05/22 05:22:24;;;;;;;27.52;8.23;;;10.10;99.90;;;;;;4940993;29;20130;-81
2022/05/22 05:24:49;;;;;;;17.20;7.63;;;10.10;99.90;;;;;;4957817;28;20503;-80
2022/05/22 05:27:15;;;;;;;20.25;7.72;;;10.30;99.90;;;;;;4957977;29;20146;-81
2022/05/22 05:29:41;;;;;;;17.98;7.65;;;10.30;99.90;;;;;;4961665;28;20130;-80
2022/05/22 05:32:07;;;;;;;20.05;7.80;;;10.40;99.90;;;;;;4961694;29;20452;-80
2022/05/22 05:34:33;;;;;;;28.87;7.97;;;10.50;99.90;;;;;;4979059;28;20043;-81
2022/05/22 05:36:59;;;;;;;16.85;7.05;;;10.60;99.90;;;;;;4960803;29;20414;-80
2022/05/22 05:39:27;;;;;;;18.75;7.32;;;10.70;99.90;;;;;;4959913;29;20049;-81
2022/05/22 05:41:55;;;;;;;22.55;7.18;;;10.80;99.90;;;;;;4961846;28;20094;-81
2022/05/22 05:44:21;;;;;;;21.42;7.85;;;10.80;99.90;;;;;;4963298;29;20047;-81
2022/05/22 05:46:47;;;;;;;17.52;6.95;;;10.90;99.90;;;;;;4962165;28;20047;-82
2022/05/22 05:49:13;;;;;;;15.13;6.13;;;11.00;99.90;;;;;;4962202;29;20047;-84
2022/05/22 05:51:40;;;;;;;13.27;5.65;;;11.00;99.90;;;;;;4976807;28;20051;-82
2022/05/22 05:54:06;;;;;;;21.73;6.32;;;11.10;99.90;;;;;;4959865;29;20057;-82
2022/05/22 05:56:32;;;;;;;26.27;6.72;;;11.10;99.90;;;;;;4976313;28;20107;-82
2022/05/22 05:58:58;;;;;;;14.85;5.32;;;11.20;99.90;;;;;;4959032;29;20568;-83
2022/05/22 06:01:24;;;;;;;17.30;5.57;;;11.20;99.90;;;;;;4943055;29;20055;-81
2022/05/22 06:03:52;;;;;;;23.85;6.10;;;11.30;99.90;;;;;;4942662;29;20051;-82
2022/05/22 06:06:18;;;;;;;24.00;6.53;;;11.40;99.90;;;;;;4959821;29;20058;-84
2022/05/22 06:08:44;;;;;;;18.80;5.63;;;11.50;99.90;;;;;;4958800;29;20051;-82
2022/05/22 06:11:10;;;;;;;19.52;6.60;;;11.50;99.90;;;;;;4959484;29;20480;-83
2022/05/22 06:13:36;;;;;;;17.75;6.72;;;11.60;99.90;;;;;;4960955;29;20554;-79
2022/05/22 06:16:06;;;;;;;21.25;5.80;;;11.70;99.90;;;;;;4962832;29;20051;-82
2022/05/22 06:18:32;;;;;;;16.48;5.25;;;11.80;99.90;;;;;;4963438;29;20087;-83
2022/05/22 06:20:58;;;;;;;14.70;4.85;;;11.80;99.90;;;;;;4969214;28;20067;-82
2022/05/22 06:23:24;;;;;;;22.70;5.80;;;11.90;99.90;;;;;;4967860;28;20043;-81
2022/05/22 06:25:50;;;;;;;18.40;5.00;;;12.00;99.90;;;;;;4953741;29;20092;-82
2022/05/22 06:28:16;;;;;;;18.35;5.18;;;12.00;99.90;;;;;;4971821;29;20062;-82
2022/05/22 06:30:42;;;;;;;20.80;5.50;;;12.20;99.90;;;;;;4970218;29;20051;-82
2022/05/22 06:33:10;;;;;;;15.37;4.80;;;12.20;99.90;;;;;;4971494;29;20107;-80
2022/05/22 06:35:39;;;;;;;19.65;5.30;;;12.30;99.90;;;;;;4969889;29;20399;-83
2022/05/22 06:39:49;;;;;;;13.32;4.55;;;12.40;99.90;;;;;;4970423;29;20059;-82
2022/05/22 06:40:55;;;;;;;15.68;4.97;;;12.50;99.90;;;;;;4968112;28;20059;-80
2022/05/22 06:43:21;;;;;;;15.77;4.90;;;12.60;99.90;;;;;;4953413;29;20031;-82
2022/05/22 06:45:51;;;;;;;19.00;4.53;;;12.70;99.90;;;;;;4969204;29;20098;-83
2022/05/22 06:48:18;;;;;;;13.68;4.65;;;12.80;99.90;;;;;;4968515;29;20283;-80
2022/05/22 06:50:44;;;;;;;13.50;4.28;;;12.90;99.90;;;;;;4969151;28;20047;-81
2022/05/22 06:53:10;;;;;;;13.50;4.80;;;13.00;99.90;;;;;;4969747;29;20055;-80
2022/05/22 06:55:36;;;;;;;15.68;4.80;;;13.00;99.90;;;;;;4971117;28;20082;-81
2022/05/22 06:58:02;;;;;;;19.40;4.63;;;13.00;99.90;;;;;;4968964;28;20055;-78
2022/05/22 07:00:28;;;;;;;13.90;4.63;;;13.10;99.90;;;;;;4967103;29;20043;-81
2022/05/22 07:02:54;;;;;;;13.30;4.23;;;13.30;99.90;;;;;;4969516;29;20054;-81
2022/05/22 07:05:23;;;;;;;16.60;5.80;;;13.30;99.90;;;;;;4970405;29;20052;-83
2022/05/22 07:07:49;;;;;;;16.58;5.07;;;13.50;99.90;;;;;;4972405;28;20074;-82
2022/05/22 07:10:15;;;;;;;16.77;5.63;;;13.60;99.90;;;;;;4969141;29;20054;-77
2022/05/22 07:12:41;;;;;;;22.90;5.72;;;13.70;99.90;;;;;;4969993;29;20475;-82
2022/05/22 07:15:08;;;;;;;16.10;4.87;;;13.90;99.90;;;;;;4968226;28;20051;-77
2022/05/22 07:17:34;;;;;;;14.10;4.60;;;14.00;99.90;;;;;;4965721;29;20291;-82
2022/05/22 07:20:00;;;;;;;19.70;5.22;;;14.00;99.90;;;;;;4968934;29;20059;-79
2022/05/22 07:22:26;;;;;;;13.95;4.00;;;14.10;99.90;;;;;;4970574;28;20103;-83
2022/05/22 07:24:52;;;;;;;15.80;4.07;;;14.20;99.90;;;;;;4969747;29;20392;-80
2022/05/22 07:27:19;;;;;;;12.20;3.08;;;14.20;99.90;;;;;;4968055;29;20052;-78
2022/05/22 07:29:45;;;;;;;14.27;3.10;;;14.20;99.90;;;;;;4966930;29;20047;-80
2022/05/22 07:32:11;;;;;;;15.93;3.80;;;14.30;99.90;;;;;;4966581;29;20044;-79
2022/05/22 07:34:38;;;;;;;13.68;3.45;;;14.40;99.90;;;;;;4971283;28;20307;-80
2022/05/22 07:37:13;;;;;;;14.85;3.10;;;14.40;99.90;;;;;;4972881;29;20069;-82
2022/05/22 07:39:38;;;;;;;18.20;3.58;;;14.60;99.90;;;;;;4971435;28;20087;-80
2022/05/22 07:42:05;;;;;;;11.15;3.30;;;14.70;99.90;;;;;;4971736;29;20051;-80
2022/05/22 07:44:31;;;;;;;13.45;3.92;;;14.70;99.90;;;;;;4971886;29;20103;-78
2022/05/22 07:46:57;;;;;;;17.35;4.10;;;14.80;99.90;;;;;;4970161;28;20046;-80
2022/05/22 07:52:09;;;;;;;12.60;3.30;;;14.90;99.90;;;;;;4951554;29;20426;-79
2022/05/22 07:54:37;;;;;;;11.07;3.40;;;15.00;99.90;;;;;;4963290;29;20043;-81
2022/05/22 07:57:04;;;;;;;12.93;3.05;;;15.00;99.90;;;;;;4962955;29;20226;-84
2022/05/22 07:59:34;;;;;;;12.70;3.63;;;15.10;99.90;;;;;;4947568;29;20134;-79
2022/05/22 08:02:00;;;;;;;11.35;2.88;;;15.20;99.90;;;;;;4966457;29;20043;-81
2022/05/22 08:04:27;;;;;;;14.90;3.33;;;15.40;99.90;;;;;;4948058;29;20137;-77
2022/05/22 08:06:52;;;;;;;11.77;3.00;;;15.50;99.90;;;;;;4966607;29;20074;-80
2022/05/22 08:09:18;;;;;;;10.23;2.53;;;15.50;99.90;;;;;;4964521;29;20047;-80
2022/05/22 08:11:44;;;;;;;11.85;3.08;;;15.50;99.90;;;;;;4979424;28;20143;-79
2022/05/22 08:14:11;;;;;;;8.68;2.22;;;15.60;99.90;;;;;;4964700;29;20134;-82
2022/05/22 08:16:37;;;;;;;10.10;2.67;;;15.60;99.90;;;;;;4963538;29;20122;-82
2022/05/22 08:19:03;;;;;;;13.27;3.00;;;15.70;99.90;;;;;;4963880;29;20063;-82
2022/05/22 08:21:29;;;;;;;9.20;2.00;;;15.80;99.90;;;;;;4965044;29;20058;-82
2022/05/22 08:23:55;;;;;;;11.63;2.13;;;15.90;99.90;;;;;;4959463;29;20480;-81
2022/05/22 08:26:22;;;;;;;10.98;1.63;;;16.00;99.90;;;;;;4959890;29;20062;-83
2022/05/22 08:28:48;;;;;;;9.63;1.35;;;16.10;99.90;;;;;;4961671;29;20062;-80
2022/05/22 08:31:14;;;;;;;12.10;2.22;;;16.10;99.90;;;;;;4960889;29;20134;-79
2022/05/22 08:33:40;;;;;;;10.50;2.22;;;16.10;99.90;;;;;;4945177;29;20059;-81
2022/05/22 08:36:06;;;;;;;10.38;2.00;;;16.00;99.90;;;;;;4943239;29;20452;-80
2022/05/22 08:38:32;;;;;;;14.68;2.15;;;16.10;99.90;;;;;;4943276;29;20134;-80
2022/05/22 08:41:21;;;;;;;9.60;1.73;;;16.30;99.90;;;;;;4959070;29;20089;-78
2022/05/22 08:44:00;;;;;;;12.70;2.25;;;16.40;99.90;;;;;;4960795;29;20078;-80
2022/05/22 08:47:06;;;;;;;11.32;2.40;;;16.50;99.90;;;;;;4958703;28;20047;-79
2022/05/22 08:49:54;;;;;;;11.77;1.95;;;16.50;99.90;;;;;;4960214;28;20471;-80
2022/05/22 08:52:44;;;;;;;9.63;1.80;;;16.70;99.90;;;;;;4943468;29;20078;-79
2022/05/22 08:55:22;;;;;;;10.52;1.85;;;16.80;99.90;;;;;;4959935;29;20114;-80
2022/05/22 09:01:04;;;;;;;7.55;2.10;;;16.90;99.90;;;;;;4960364;28;20104;-81
2022/05/22 09:03:37;;;;;;;10.70;2.33;;;17.00;99.90;;;;;;4961162;29;20080;-79
2022/05/22 09:06:05;;;;;;;9.05;2.65;;;16.90;99.90;;;;;;4960585;28;20062;-80
2022/05/22 09:08:50;;;;;;;11.20;1.77;;;17.10;99.90;;;;;;4960984;28;20062;-81
2022/05/22 09:11:29;;;;;;;8.95;1.95;;;17.30;99.90;;;;;;4960987;29;20054;-82
2022/05/22 09:14:08;;;;;;;10.38;2.10;;;17.30;99.90;;;;;;4962104;29;20043;-83
2022/05/22 09:16:56;;;;;;;11.07;2.08;;;17.00;99.90;;;;;;4961538;29;20051;-81
2022/05/22 09:19:45;;;;;;;15.13;2.90;;;17.10;99.90;;;;;;4961433;29;20055;-78
2022/05/22 09:22:24;;;;;;;8.93;2.38;;;17.40;99.90;;;;;;4962992;29;20099;-78
2022/05/22 09:25:20;;;;;;;9.10;2.03;;;17.40;99.90;;;;;;4965076;28;20047;-82
2022/05/22 09:28:02;;;;;;;14.98;2.33;;;17.60;99.90;;;;;;4980604;28;20158;-81
2022/05/22 09:30:37;;;;;;;11.77;2.33;;;17.80;99.90;;;;;;4967200;28;20421;-78
2022/05/22 09:33:29;;;;;;;8.43;1.73;;;18.00;99.90;;;;;;4967608;29;20047;-79
2022/05/22 09:36:05;;;;;;;10.10;1.58;;;18.30;99.90;;;;;;4962155;29;20512;-83
2022/05/22 09:38:50;;;;;;;;;;;18.40;99.90;;;;;;4962246;29;20436;-81
2022/05/22 09:41:46;;;;;;;15.15;1.65;;;18.70;99.90;;;;;;4962958;29;19922;-79
2022/05/22 09:44:18;;;;;;;7.53;1.25;;;18.70;99.90;;;;;;4963155;28;20113;-82
2022/05/22 09:47:15;;;;;;;11.27;1.60;;;18.80;99.90;;;;;;4961782;29;20058;-82
2022/05/22 09:49:49;;;;;;;9.02;1.23;;;19.00;99.90;;;;;;4958391;29;20500;-80
2022/05/22 09:52:20;;;;;;;11.15;1.30;;;19.20;99.90;;;;;;4958421;29;20047;-77
2022/05/22 09:54:49;;;;;;;8.38;1.67;;;18.70;99.90;;;;;;4958026;29;20463;-82
2022/05/22 09:58:00;;;;;;;8.85;1.70;;;18.80;99.90;;;;;;4957775;28;20060;-79
2022/05/22 10:00:44;;;;;;;11.60;1.55;;;18.60;99.90;;;;;;4956460;29;20118;-82
2022/05/22 10:03:29;;;;;;;7.15;1.30;;;18.60;99.90;;;;;;4972530;28;20078;-81
2022/05/22 10:06:22;;;;;;;11.43;1.75;;;18.90;99.90;;;;;;4956995;28;20062;-83
2022/05/22 10:08:54;;;;;;;7.22;1.65;;;19.00;99.90;;;;;;4973461;28;20055;-81
2022/05/22 10:11:43;;;;;;;6.80;1.33;;;19.10;99.90;;;;;;4958829;29;20055;-83
2022/05/22 10:14:57;;;;;;;10.13;1.60;;;18.80;99.90;;;;;;4958879;28;20055;-80
2022/05/22 10:17:45;;;;;;;9.68;1.58;;;18.80;99.90;;;;;;4957114;28;20058;-82
2022/05/22 10:20:36;;;;;;;14.95;1.80;;;19.00;98.80;;;;;;4956628;29;20058;-80
2022/05/22 10:23:16;;;;;;;9.40;1.25;;;18.90;99.20;;;;;;4957822;29;20077;-79
2022/05/22 10:25:54;;;;;;;6.57;1.27;;;19.10;98.50;;;;;;4957937;28;20373;-82
2022/05/22 10:28:23;;;;;;;6.47;1.33;;;19.20;99.50;;;;;;4958145;28;20102;-82
2022/05/22 10:30:58;;;;;;;7.80;1.60;;;19.40;99.80;;;;;;4956473;29;20059;-80
2022/05/22 10:33:30;;;;;;;8.43;1.50;;;19.60;97.70;;;;;;4956935;28;20126;-82
2022/05/22 10:36:03;;;;;;;11.23;1.35;;;19.20;94.20;;;;;;4959223;28;20043;-82
2022/05/22 10:38:35;;;;;;;8.32;1.10;;;19.30;96.40;;;;;;4961642;29;20263;-84
2022/05/22 10:44:08;;;;;;;13.43;1.80;;;19.50;97.40;;;;;;4965102;28;20055;-80
2022/05/22 10:46:49;;;;;;;7.85;1.42;;;19.60;98.60;;;;;;4958854;29;20061;-84
2022/05/22 10:49:18;;;;;;;7.22;1.40;;;19.90;96.60;;;;;;4972162;28;20606;-84
2022/05/22 10:52:03;;;;;;;8.50;1.35;;;19.90;97.60;;;;;;4956219;29;20105;-82
2022/05/22 10:54:32;;;;;;;11.20;1.52;;;20.10;96.50;;;;;;4971724;28;20178;-80
2022/05/22 10:57:29;;;;;;;11.02;1.48;;;20.20;97.80;;;;;;4939506;29;20168;-80
2022/05/22 10:59:56;;;;;;;7.80;1.67;;;20.50;97.80;;;;;;4948815;29;20095;-80
2022/05/22 11:02:28;;;;;;;8.05;1.40;;;19.50;94.00;;;;;;4955822;29;20568;-82
2022/05/22 11:04:56;;;;;;;10.45;1.13;;;20.00;96.20;;;;;;4956729;29;20105;-81
2022/05/22 11:07:42;;;;;;;8.50;1.20;;;20.00;93.50;;;;;;4958408;28;20138;-81
2022/05/22 11:10:20;;;;;;;7.20;1.45;;;20.00;94.90;;;;;;4957793;29;20047;-80
2022/05/22 11:12:58;;;;;;;5.65;1.33;;;20.20;96.40;;;;;;4959284;29;20047;-80
2022/05/22 11:15:28;;;;;;;7.53;1.27;;;20.30;94.10;;;;;;4966501;29;20082;-80
2022/05/22 11:18:06;;;;;;;9.55;1.40;;;20.20;87.90;;;;;;4974306;28;20055;-78
2022/05/22 11:20:33;;;;;;;7.22;1.30;;;20.40;93.90;;;;;;4974768;29;20101;-80
2022/05/22 11:23:25;;;;;;;6.30;1.02;;;20.10;90.60;;;;;;4974913;29;20055;-82
2022/05/22 11:25:58;;;;;;;5.88;0.70;;;20.20;91.90;;;;;;4967533;29;20067;-81
2022/05/22 11:28:48;;;;;;;8.93;1.27;;;20.40;92.80;;;;;;4979283;28;20062;-84
2022/05/22 11:31:46;;;;;;;7.90;1.25;;;20.80;93.00;;;;;;4963744;29;20058;-81
2022/05/22 11:34:33;;;;;;;8.02;1.13;;;20.80;86.60;;;;;;4953719;29;20059;-80
2022/05/22 11:37:22;;;;;;;8.93;1.27;;;20.80;91.40;;;;;;4977105;29;20074;-79
2022/05/22 11:40:15;;;;;;;9.13;1.30;;;20.80;90.40;;;;;;4962374;29;20051;-82
2022/05/22 11:42:43;;;;;;;10.57;1.48;;;21.00;91.70;;;;;;4976208;28;20503;-84
2022/05/22 11:45:20;;;;;;;5.68;1.25;;;21.40;92.50;;;;;;4958167;29;20054;-81
2022/05/22 11:48:08;;;;;;;6.50;1.05;;;21.50;91.10;;;;;;4958985;29;20058;-79
2022/05/22 11:50:55;;;;;;;7.78;0.95;;;21.60;91.50;;;;;;4969564;29;20121;-80
2022/05/22 11:53:48;;;;;;;6.25;0.98;;;21.40;90.00;;;;;;4971494;29;20047;-79
2022/05/22 11:56:13;;;;;;;9.43;1.17;;;21.20;88.20;;;;;;4969750;29;20055;-80
2022/05/22 11:59:07;;;;;;;8.13;1.20;;;20.70;85.20;;;;;;4967558;29;20416;-80
2022/05/22 12:01:36;;;;;;;5.88;1.00;;;20.60;83.60;;;;;;4958901;29;20051;-81
2022/05/22 12:04:20;;;;;;;6.60;1.15;;;20.50;90.00;;;;;;4956461;29;20043;-81
2022/05/22 12:07:08;;;;;;;7.32;1.73;;;20.30;85.80;;;;;;4956458;28;20047;-80
2022/05/22 12:09:51;;;;;;;5.57;1.02;;;19.80;82.60;;;;;;4957265;28;20086;-83
2022/05/22 12:12:30;;;;;;;11.32;1.52;;;19.40;87.10;;;;;;4957388;28;20059;-82
2022/05/22 12:14:56;;;;;;;10.32;1.30;;;19.50;89.60;;;;;;4956678;29;20134;-81
2022/05/22 12:17:27;;;;;;;7.37;1.20;;;19.50;90.40;;;;;;4955239;28;20095;-83
2022/05/22 12:19:59;;;;;;;8.95;1.30;;;19.40;90.00;;;;;;4955979;28;20059;-84
2022/05/22 12:23:07;;;;;;;8.25;1.15;;;19.40;89.50;;;;;;4960293;28;20468;-83
2022/05/22 12:25:20;;;;;;;6.05;1.00;;;19.40;90.20;;;;;;4959636;29;20059;-80
2022/05/22 12:27:47;;;;;;;8.38;1.25;;;19.40;89.80;;;;;;4975519;28;20055;-78
2022/05/22 12:30:22;;;;;;;4.35;1.08;;;19.90;90.90;;;;;;4959667;29;20107;-83
2022/05/22 12:32:59;;;;;;;7.65;0.90;;;20.40;91.30;;;;;;4943085;29;20377;-76
2022/05/22 12:35:26;;;;;;;7.07;1.00;;;20.60;89.70;;;;;;4958287;29;20052;-82
2022/05/22 12:38:05;;;;;;;7.53;1.05;;;20.70;87.60;;;;;;4943183;29;20043;-81
2022/05/22 12:40:49;;;;;;;5.32;0.90;;;21.10;89.30;;;;;;4960535;28;20055;-84
2022/05/22 12:43:19;;;;;;;6.18;1.38;;;21.10;82.20;;;;;;4960907;28;20083;-83
2022/05/22 12:45:53;;;;;;;5.15;1.08;;;21.20;87.20;;;;;;4959370;29;20055;-83
2022/05/22 12:48:35;;;;;;;6.80;0.90;;;21.00;84.80;;;;;;4958812;29;20117;-82
2022/05/22 12:51:22;;;;;;;5.47;1.15;;;21.10;87.30;;;;;;4959866;28;20055;-82
2022/05/22 12:53:50;;;;;;;8.20;1.30;;;20.90;81.60;;;;;;4959197;28;20059;-79
2022/05/22 12:56:38;;;;;;;6.47;0.60;;;21.00;85.10;;;;;;4956660;29;20054;-82
2022/05/22 12:59:16;;;;;;;5.38;0.98;;;21.40;81.10;;;;;;4960041;29;20085;-82
2022/05/22 13:01:45;;;;;;;5.18;0.70;;;21.20;82.70;;;;;;4959982;29;20047;-84
2022/05/22 13:04:29;;;;;;;6.47;1.00;;;21.60;82.60;;;;;;4958701;29;20086;-84
2022/05/22 13:07:07;;;;;;;4.05;0.80;;;21.90;77.70;;;;;;4962085;29;20075;-82
2022/05/22 13:09:44;;;;;;;6.85;0.65;;;21.70;80.40;;;;;;4974725;28;20101;-80
2022/05/22 13:12:27;;;;;;;6.85;1.10;;;22.10;77.50;;;;;;4956932;29;20437;-83
2022/05/22 13:15:09;;;;;;;6.80;0.90;;;22.00;78.30;;;;;;4942283;29;20043;-76
2022/05/22 13:17:50;;;;;;;6.93;0.82;;;21.80;78.80;;;;;;4959974;29;20063;-83
2022/05/22 13:20:48;;;;;;;6.88;1.00;;;21.70;78.80;;;;;;4957698;29;20066;-82
2022/05/22 13:23:23;;;;;;;6.00;0.90;;;21.50;78.30;;;;;;4960303;29;20059;-80